sensor_id;sensor_type;location;lat;lon;timestamp;P1;durP1;ratioP1;P2;durP2;ratioP2
2620;SDS011;1320;48.128;11.592;2023-02-22T00:01:52;9.77;;;5.50;;
2620;SDS011;1320;48.128;11.592;2023-02-22T00:04:35;6.70;;;4.70;;
2620;SDS011;1320;48.128;11.592;2023-02-22T00:07:03;7.90;;;5.47;;
2620;SDS011;1320;48.128;11.592;2023-02-22T00:09:30;8.00;;;5.20;;
2620;SDS011;1320;48.128;11.592;2023-02-22T00:11:56;7.27;;;4.83;;
2620;SDS011;1320;48.128;11.592;2023-02-22T00:14:22;11.33;;;5.93;;
2620;SDS011;1320;48.128;11.592;2023-02-22T00:16:51;8.17;;;4.83;;
2620;SDS011;1320;48.128;11.592;2023-02-22T00:19:20;7.77;;;5.13;;
2620;SDS011;1320;48.128;11.592;2023-02-22T00:21:50;9.27;;;5.53;;
2620;SDS011;1320;48.128;11.592;2023-02-22T00:24:18;8.20;;;5.17;;
2620;SDS011;1320;48.128;11.592;2023-02-22T00:26:53;8.17;;;5.33;;
2620;SDS011;1320;48.128;11.592;2023-02-22T00:29:20;8.43;;;5.20;;
2620;SDS011;1320;48.128;11.592;2023-02-22T00:31:47;7.30;;;5.27;;
2620;SDS011;1320;48.128;11.592;2023-02-22T00:34:13;11.93;;;6.20;;
2620;SDS011;1320;48.128;11.592;2023-02-22T00:36:43;9.87;;;5.77;;
2620;SDS011;1320;48.128;11.592;2023-02-22T00:39:12;9.63;;;5.70;;
2620;SDS011;1320;48.128;11.592;2023-02-22T00:41:38;6.83;;;4.83;;
2620;SDS011;1320;48.128;11.592;2023-02-22T00:44:04;7.60;;;4.80;;
2620;SDS011;1320;48.128;11.592;2023-02-22T00:46:29;9.50;;;5.50;;
2620;SDS011;1320;48.128;11.592;2023-02-22T00:48:55;8.63;;;4.50;;
2620;SDS011;1320;48.128;11.592;2023-02-22T00:51:23;11.10;;;4.70;;
2620;SDS011;1320;48.128;11.592;2023-02-22T00:53:50;9.10;;;5.40;;
2620;SDS011;1320;48.128;11.592;2023-02-22T00:56:16;7.70;;;5.17;;
2620;SDS011;1320;48.128;11.592;2023-02-22T00:58:41;6.67;;;4.40;;
2620;SDS011;1320;48.128;11.592;2023-02-22T01:01:08;11.20;;;4.70;;
2620;SDS011;1320;48.128;11.592;2023-02-22T01:03:34;6.03;;;4.10;;
2620;SDS011;1320;48.128;11.592;2023-02-22T01:05:59;5.07;;;4.30;;
2620;SDS011;1320;48.128;11.592;2023-02-22T01:08:26;6.20;;;3.97;;
2620;SDS011;1320;48.128;11.592;2023-02-22T01:10:55;11.13;;;4.80;;
2620;SDS011;1320;48.128;11.592;2023-02-22T01:13:21;5.93;;;4.00;;
2620;SDS011;1320;48.128;11.592;2023-02-22T01:15:47;6.83;;;3.97;;
2620;SDS011;1320;48.128;11.592;2023-02-22T01:18:14;6.20;;;3.50;;
2620;SDS011;1320;48.128;11.592;2023-02-22T01:20:41;7.43;;;4.00;;
2620;SDS011;1320;48.128;11.592;2023-02-22T01:23:11;8.63;;;3.83;;
2620;SDS011;1320;48.128;11.592;2023-02-22T01:25:38;7.80;;;3.70;;
2620;SDS011;1320;48.128;11.592;2023-02-22T01:28:04;4.33;;;3.10;;
2620;SDS011;1320;48.128;11.592;2023-02-22T01:30:31;5.20;;;3.13;;
2620;SDS011;1320;48.128;11.592;2023-02-22T01:32:59;5.80;;;3.30;;
2620;SDS011;1320;48.128;11.592;2023-02-22T01:35:27;7.17;;;4.37;;
2620;SDS011;1320;48.128;11.592;2023-02-22T01:37:55;6.10;;;3.57;;
2620;SDS011;1320;48.128;11.592;2023-02-22T01:40:26;4.53;;;2.90;;
2620;SDS011;1320;48.128;11.592;2023-02-22T01:43:02;6.30;;;4.20;;
2620;SDS011;1320;48.128;11.592;2023-02-22T01:45:40;6.97;;;4.47;;
2620;SDS011;1320;48.128;11.592;2023-02-22T01:48:20;4.60;;;3.23;;
2620;SDS011;1320;48.128;11.592;2023-02-22T01:50:54;5.07;;;3.33;;
2620;SDS011;1320;48.128;11.592;2023-02-22T01:53:26;5.50;;;3.17;;
2620;SDS011;1320;48.128;11.592;2023-02-22T01:56:00;6.87;;;3.80;;
2620;SDS011;1320;48.128;11.592;2023-02-22T01:58:27;4.40;;;2.67;;
2620;SDS011;1320;48.128;11.592;2023-02-22T02:00:56;7.67;;;2.60;;
2620;SDS011;1320;48.128;11.592;2023-02-22T02:03:23;5.97;;;2.80;;
2620;SDS011;1320;48.128;11.592;2023-02-22T02:05:54;6.83;;;3.20;;
2620;SDS011;1320;48.128;11.592;2023-02-22T02:08:26;6.25;;;3.03;;
2620;SDS011;1320;48.128;11.592;2023-02-22T02:11:00;5.85;;;3.33;;
2620;SDS011;1320;48.128;11.592;2023-02-22T02:13:27;7.00;;;4.00;;
2620;SDS011;1320;48.128;11.592;2023-02-22T02:15:54;5.90;;;3.13;;
2620;SDS011;1320;48.128;11.592;2023-02-22T02:18:20;4.68;;;2.67;;
2620;SDS011;1320;48.128;11.592;2023-02-22T02:40:45;5.47;;;3.37;;
2620;SDS011;1320;48.128;11.592;2023-02-22T02:43:21;5.87;;;3.33;;
2620;SDS011;1320;48.128;11.592;2023-02-22T02:46:08;5.65;;;3.10;;
2620;SDS011;1320;48.128;11.592;2023-02-22T02:48:36;5.38;;;3.08;;
2620;SDS011;1320;48.128;11.592;2023-02-22T02:51:06;5.55;;;2.83;;
2620;SDS011;1320;48.128;11.592;2023-02-22T02:53:36;5.57;;;3.40;;
2620;SDS011;1320;48.128;11.592;2023-02-22T02:56:04;4.82;;;3.10;;
2620;SDS011;1320;48.128;11.592;2023-02-22T02:58:31;5.70;;;3.25;;
2620;SDS011;1320;48.128;11.592;2023-02-22T03:00:58;5.53;;;2.42;;
2620;SDS011;1320;48.128;11.592;2023-02-22T03:11:19;4.85;;;3.30;;
2620;SDS011;1320;48.128;11.592;2023-02-22T03:16:51;4.13;;;2.70;;
2620;SDS011;1320;48.128;11.592;2023-02-22T03:19:42;5.75;;;2.90;;
2620;SDS011;1320;48.128;11.592;2023-02-22T03:22:10;3.83;;;2.50;;
2620;SDS011;1320;48.128;11.592;2023-02-22T03:24:55;6.88;;;3.15;;
2620;SDS011;1320;48.128;11.592;2023-02-22T03:27:50;5.95;;;2.50;;
2620;SDS011;1320;48.128;11.592;2023-02-22T03:30:24;8.02;;;3.28;;
2620;SDS011;1320;48.128;11.592;2023-02-22T03:32:56;5.57;;;2.42;;
2620;SDS011;1320;48.128;11.592;2023-02-22T03:35:27;4.70;;;2.50;;
2620;SDS011;1320;48.128;11.592;2023-02-22T03:37:57;5.20;;;2.40;;
2620;SDS011;1320;48.128;11.592;2023-02-22T03:40:27;4.63;;;2.58;;
2620;SDS011;1320;48.128;11.592;2023-02-22T03:43:06;4.97;;;2.70;;
2620;SDS011;1320;48.128;11.592;2023-02-22T03:45:53;5.38;;;2.33;;
2620;SDS011;1320;48.128;11.592;2023-02-22T03:48:28;3.30;;;2.10;;
2620;SDS011;1320;48.128;11.592;2023-02-22T03:51:02;4.10;;;2.75;;
2620;SDS011;1320;48.128;11.592;2023-02-22T03:53:28;3.70;;;2.10;;
2620;SDS011;1320;48.128;11.592;2023-02-22T03:55:55;5.43;;;2.50;;
2620;SDS011;1320;48.128;11.592;2023-02-22T03:58:22;5.10;;;2.13;;
2620;SDS011;1320;48.128;11.592;2023-02-22T04:00:50;4.00;;;2.47;;
2620;SDS011;1320;48.128;11.592;2023-02-22T04:03:18;4.75;;;2.33;;
2620;SDS011;1320;48.128;11.592;2023-02-22T04:05:44;5.05;;;2.60;;
2620;SDS011;1320;48.128;11.592;2023-02-22T04:08:10;3.85;;;2.60;;
2620;SDS011;1320;48.128;11.592;2023-02-22T04:10:36;7.20;;;2.60;;
2620;SDS011;1320;48.128;11.592;2023-02-22T04:13:02;4.63;;;2.03;;
2620;SDS011;1320;48.128;11.592;2023-02-22T04:15:30;5.18;;;2.85;;
2620;SDS011;1320;48.128;11.592;2023-02-22T04:17:56;4.10;;;2.53;;
2620;SDS011;1320;48.128;11.592;2023-02-22T04:20:25;4.50;;;3.10;;
2620;SDS011;1320;48.128;11.592;2023-02-22T04:22:51;3.10;;;2.00;;
2620;SDS011;1320;48.128;11.592;2023-02-22T04:25:18;4.70;;;2.75;;
2620;SDS011;1320;48.128;11.592;2023-02-22T04:27:45;4.35;;;2.70;;
2620;SDS011;1320;48.128;11.592;2023-02-22T04:30:11;5.30;;;2.70;;
2620;SDS011;1320;48.128;11.592;2023-02-22T04:32:37;4.78;;;2.53;;
2620;SDS011;1320;48.128;11.592;2023-02-22T04:35:04;4.55;;;2.65;;
2620;SDS011;1320;48.128;11.592;2023-02-22T04:37:30;4.65;;;3.00;;
2620;SDS011;1320;48.128;11.592;2023-02-22T04:39:59;5.17;;;2.70;;
2620;SDS011;1320;48.128;11.592;2023-02-22T04:42:25;9.70;;;3.40;;
2620;SDS011;1320;48.128;11.592;2023-02-22T04:44:51;5.87;;;3.40;;
2620;SDS011;1320;48.128;11.592;2023-02-22T04:47:17;4.57;;;2.77;;
2620;SDS011;1320;48.128;11.592;2023-02-22T04:49:42;5.43;;;2.80;;
2620;SDS011;1320;48.128;11.592;2023-02-22T04:52:09;5.40;;;2.87;;
2620;SDS011;1320;48.128;11.592;2023-02-22T04:54:36;5.57;;;2.90;;
2620;SDS011;1320;48.128;11.592;2023-02-22T04:57:02;10.30;;;2.90;;
2620;SDS011;1320;48.128;11.592;2023-02-22T04:59:28;4.33;;;2.30;;
2620;SDS011;1320;48.128;11.592;2023-02-22T05:01:53;7.10;;;2.73;;
2620;SDS011;1320;48.128;11.592;2023-02-22T05:04:19;6.03;;;3.03;;
2620;SDS011;1320;48.128;11.592;2023-02-22T05:06:45;6.37;;;2.80;;
2620;SDS011;1320;48.128;11.592;2023-02-22T05:09:12;4.20;;;2.57;;
2620;SDS011;1320;48.128;11.592;2023-02-22T05:11:37;5.80;;;2.70;;
2620;SDS011;1320;48.128;11.592;2023-02-22T05:14:03;5.30;;;3.60;;
2620;SDS011;1320;48.128;11.592;2023-02-22T05:16:29;3.90;;;2.47;;
2620;SDS011;1320;48.128;11.592;2023-02-22T05:18:55;4.03;;;2.93;;
2620;SDS011;1320;48.128;11.592;2023-02-22T05:21:20;5.73;;;3.50;;
2620;SDS011;1320;48.128;11.592;2023-02-22T05:23:46;5.93;;;2.70;;
2620;SDS011;1320;48.128;11.592;2023-02-22T05:26:12;8.70;;;2.80;;
2620;SDS011;1320;48.128;11.592;2023-02-22T05:28:37;4.50;;;2.23;;
2620;SDS011;1320;48.128;11.592;2023-02-22T05:31:03;9.33;;;3.10;;
2620;SDS011;1320;48.128;11.592;2023-02-22T05:33:29;4.70;;;2.10;;
2620;SDS011;1320;48.128;11.592;2023-02-22T05:35:55;3.33;;;2.17;;
2620;SDS011;1320;48.128;11.592;2023-02-22T05:38:20;4.13;;;3.10;;
2620;SDS011;1320;48.128;11.592;2023-02-22T05:40:47;5.57;;;2.80;;
2620;SDS011;1320;48.128;11.592;2023-02-22T05:43:13;5.00;;;2.50;;
2620;SDS011;1320;48.128;11.592;2023-02-22T05:45:39;6.30;;;3.27;;
2620;SDS011;1320;48.128;11.592;2023-02-22T05:48:05;6.10;;;3.20;;
2620;SDS011;1320;48.128;11.592;2023-02-22T05:50:32;5.05;;;3.13;;
2620;SDS011;1320;48.128;11.592;2023-02-22T05:52:58;6.70;;;2.70;;
2620;SDS011;1320;48.128;11.592;2023-02-22T05:55:24;5.90;;;2.92;;
2620;SDS011;1320;48.128;11.592;2023-02-22T05:57:50;5.30;;;2.57;;
2620;SDS011;1320;48.128;11.592;2023-02-22T06:02:44;4.72;;;2.95;;
2620;SDS011;1320;48.128;11.592;2023-02-22T06:05:10;4.70;;;3.03;;
2620;SDS011;1320;48.128;11.592;2023-02-22T06:07:36;6.10;;;3.23;;
2620;SDS011;1320;48.128;11.592;2023-02-22T06:10:01;5.47;;;3.63;;
2620;SDS011;1320;48.128;11.592;2023-02-22T06:12:27;4.97;;;3.03;;
2620;SDS011;1320;48.128;11.592;2023-02-22T06:14:53;5.57;;;2.83;;
2620;SDS011;1320;48.128;11.592;2023-02-22T06:17:18;16.30;;;3.20;;
2620;SDS011;1320;48.128;11.592;2023-02-22T06:19:44;8.80;;;3.57;;
2620;SDS011;1320;48.128;11.592;2023-02-22T06:22:14;8.40;;;3.30;;
2620;SDS011;1320;48.128;11.592;2023-02-22T06:24:41;7.45;;;3.30;;
2620;SDS011;1320;48.128;11.592;2023-02-22T06:27:07;6.80;;;3.10;;
2620;SDS011;1320;48.128;11.592;2023-02-22T06:29:33;5.33;;;3.70;;
2620;SDS011;1320;48.128;11.592;2023-02-22T06:31:58;6.57;;;3.10;;
2620;SDS011;1320;48.128;11.592;2023-02-22T06:34:24;3.93;;;2.80;;
2620;SDS011;1320;48.128;11.592;2023-02-22T06:36:50;3.90;;;2.70;;
2620;SDS011;1320;48.128;11.592;2023-02-22T06:39:15;11.50;;;3.50;;
2620;SDS011;1320;48.128;11.592;2023-02-22T06:41:43;4.38;;;2.72;;
2620;SDS011;1320;48.128;11.592;2023-02-22T06:44:10;4.97;;;3.40;;
2620;SDS011;1320;48.128;11.592;2023-02-22T06:46:36;11.57;;;4.22;;
2620;SDS011;1320;48.128;11.592;2023-02-22T06:49:03;6.53;;;3.90;;
2620;SDS011;1320;48.128;11.592;2023-02-22T06:51:29;5.80;;;3.05;;
2620;SDS011;1320;48.128;11.592;2023-02-22T06:53:59;8.02;;;4.22;;
2620;SDS011;1320;48.128;11.592;2023-02-22T06:56:25;9.83;;;3.40;;
2620;SDS011;1320;48.128;11.592;2023-02-22T06:58:51;9.07;;;3.60;;
2620;SDS011;1320;48.128;11.592;2023-02-22T07:01:16;6.73;;;3.17;;
2620;SDS011;1320;48.128;11.592;2023-02-22T07:03:42;7.43;;;3.20;;
2620;SDS011;1320;48.128;11.592;2023-02-22T07:06:08;5.23;;;2.93;;
2620;SDS011;1320;48.128;11.592;2023-02-22T07:08:34;5.88;;;3.10;;
2620;SDS011;1320;48.128;11.592;2023-02-22T07:11:00;5.57;;;3.30;;
2620;SDS011;1320;48.128;11.592;2023-02-22T07:13:26;5.10;;;3.10;;
2620;SDS011;1320;48.128;11.592;2023-02-22T07:15:52;7.00;;;3.70;;
2620;SDS011;1320;48.128;11.592;2023-02-22T07:18:18;7.63;;;4.00;;
2620;SDS011;1320;48.128;11.592;2023-02-22T07:20:44;6.10;;;3.37;;
2620;SDS011;1320;48.128;11.592;2023-02-22T07:23:12;7.40;;;3.50;;
2620;SDS011;1320;48.128;11.592;2023-02-22T07:25:39;4.38;;;2.80;;
2620;SDS011;1320;48.128;11.592;2023-02-22T07:28:04;10.37;;;3.77;;
2620;SDS011;1320;48.128;11.592;2023-02-22T07:30:31;4.63;;;3.43;;
2620;SDS011;1320;48.128;11.592;2023-02-22T07:33:01;6.07;;;3.90;;
2620;SDS011;1320;48.128;11.592;2023-02-22T07:35:31;7.37;;;3.17;;
2620;SDS011;1320;48.128;11.592;2023-02-22T07:38:02;7.60;;;3.80;;
2620;SDS011;1320;48.128;11.592;2023-02-22T07:40:30;7.90;;;3.87;;
2620;SDS011;1320;48.128;11.592;2023-02-22T07:42:59;6.00;;;4.30;;
2620;SDS011;1320;48.128;11.592;2023-02-22T07:45:44;8.70;;;3.63;;
2620;SDS011;1320;48.128;11.592;2023-02-22T07:48:11;7.70;;;3.53;;
2620;SDS011;1320;48.128;11.592;2023-02-22T07:50:37;8.50;;;4.80;;
2620;SDS011;1320;48.128;11.592;2023-02-22T07:53:04;7.80;;;4.10;;
2620;SDS011;1320;48.128;11.592;2023-02-22T07:55:31;7.23;;;4.17;;
2620;SDS011;1320;48.128;11.592;2023-02-22T07:57:58;7.00;;;3.57;;
2620;SDS011;1320;48.128;11.592;2023-02-22T08:00:36;6.93;;;4.00;;
2620;SDS011;1320;48.128;11.592;2023-02-22T08:03:04;7.37;;;3.80;;
2620;SDS011;1320;48.128;11.592;2023-02-22T08:05:32;11.50;;;4.00;;
2620;SDS011;1320;48.128;11.592;2023-02-22T08:07:59;9.63;;;4.30;;
2620;SDS011;1320;48.128;11.592;2023-02-22T08:10:25;5.93;;;4.00;;
2620;SDS011;1320;48.128;11.592;2023-02-22T08:12:51;12.03;;;4.90;;
2620;SDS011;1320;48.128;11.592;2023-02-22T08:17:47;8.17;;;3.47;;
2620;SDS011;1320;48.128;11.592;2023-02-22T08:20:13;7.63;;;4.50;;
2620;SDS011;1320;48.128;11.592;2023-02-22T08:22:39;6.80;;;4.20;;
2620;SDS011;1320;48.128;11.592;2023-02-22T08:25:07;11.43;;;4.17;;
2620;SDS011;1320;48.128;11.592;2023-02-22T08:27:33;9.40;;;5.40;;
2620;SDS011;1320;48.128;11.592;2023-02-22T08:29:58;6.73;;;3.20;;
2620;SDS011;1320;48.128;11.592;2023-02-22T08:32:24;7.13;;;3.87;;
2620;SDS011;1320;48.128;11.592;2023-02-22T08:34:50;7.30;;;3.00;;
2620;SDS011;1320;48.128;11.592;2023-02-22T08:37:16;5.80;;;3.40;;
2620;SDS011;1320;48.128;11.592;2023-02-22T08:39:42;7.50;;;3.73;;
2620;SDS011;1320;48.128;11.592;2023-02-22T08:42:08;5.83;;;3.13;;
2620;SDS011;1320;48.128;11.592;2023-02-22T08:44:34;4.97;;;3.20;;
2620;SDS011;1320;48.128;11.592;2023-02-22T08:47:01;8.60;;;4.33;;
2620;SDS011;1320;48.128;11.592;2023-02-22T08:49:26;8.97;;;3.80;;
2620;SDS011;1320;48.128;11.592;2023-02-22T08:51:52;9.57;;;4.37;;
2620;SDS011;1320;48.128;11.592;2023-02-22T08:54:18;8.10;;;3.90;;
2620;SDS011;1320;48.128;11.592;2023-02-22T08:56:43;4.57;;;2.83;;
2620;SDS011;1320;48.128;11.592;2023-02-22T08:59:09;7.13;;;3.50;;
2620;SDS011;1320;48.128;11.592;2023-02-22T09:01:35;6.47;;;3.63;;
2620;SDS011;1320;48.128;11.592;2023-02-22T09:04:01;5.63;;;2.57;;
2620;SDS011;1320;48.128;11.592;2023-02-22T09:06:27;4.43;;;2.63;;
2620;SDS011;1320;48.128;11.592;2023-02-22T09:08:53;9.23;;;2.30;;
2620;SDS011;1320;48.128;11.592;2023-02-22T09:11:19;3.90;;;2.50;;
2620;SDS011;1320;48.128;11.592;2023-02-22T09:13:45;4.47;;;2.70;;
2620;SDS011;1320;48.128;11.592;2023-02-22T09:16:10;5.07;;;2.87;;
2620;SDS011;1320;48.128;11.592;2023-02-22T09:18:36;5.90;;;2.37;;
2620;SDS011;1320;48.128;11.592;2023-02-22T09:21:02;4.90;;;2.20;;
2620;SDS011;1320;48.128;11.592;2023-02-22T09:23:29;4.80;;;3.23;;
2620;SDS011;1320;48.128;11.592;2023-02-22T09:25:55;3.50;;;1.87;;
2620;SDS011;1320;48.128;11.592;2023-02-22T09:28:21;6.47;;;2.33;;
2620;SDS011;1320;48.128;11.592;2023-02-22T09:30:47;5.83;;;2.10;;
2620;SDS011;1320;48.128;11.592;2023-02-22T09:33:16;15.53;;;3.37;;
2620;SDS011;1320;48.128;11.592;2023-02-22T09:35:44;37.70;;;5.20;;
2620;SDS011;1320;48.128;11.592;2023-02-22T09:38:11;29.40;;;5.63;;
2620;SDS011;1320;48.128;11.592;2023-02-22T09:40:40;13.70;;;4.83;;
2620;SDS011;1320;48.128;11.592;2023-02-22T09:46:33;8.00;;;3.13;;
2620;SDS011;1320;48.128;11.592;2023-02-22T09:51:38;11.73;;;3.70;;
2620;SDS011;1320;48.128;11.592;2023-02-22T09:54:22;13.43;;;3.90;;
2620;SDS011;1320;48.128;11.592;2023-02-22T09:57:11;8.33;;;3.83;;
2620;SDS011;1320;48.128;11.592;2023-02-22T09:59:45;8.27;;;2.90;;
2620;SDS011;1320;48.128;11.592;2023-02-22T10:02:25;6.60;;;2.50;;
2620;SDS011;1320;48.128;11.592;2023-02-22T10:05:00;3.27;;;1.50;;
2620;SDS011;1320;48.128;11.592;2023-02-22T10:07:31;3.00;;;1.63;;
2620;SDS011;1320;48.128;11.592;2023-02-22T10:10:18;3.10;;;1.80;;
2620;SDS011;1320;48.128;11.592;2023-02-22T10:15:26;4.10;;;2.60;;
2620;SDS011;1320;48.128;11.592;2023-02-22T10:21:00;3.20;;;1.80;;
2620;SDS011;1320;48.128;11.592;2023-02-22T10:26:24;3.17;;;1.33;;
2620;SDS011;1320;48.128;11.592;2023-02-22T10:28:53;4.27;;;1.40;;
2620;SDS011;1320;48.128;11.592;2023-02-22T10:31:36;3.53;;;2.10;;
2620;SDS011;1320;48.128;11.592;2023-02-22T10:34:11;2.90;;;2.10;;
2620;SDS011;1320;48.128;11.592;2023-02-22T10:36:44;5.40;;;1.80;;
2620;SDS011;1320;48.128;11.592;2023-02-22T10:39:26;5.20;;;2.40;;
2620;SDS011;1320;48.128;11.592;2023-02-22T10:41:56;4.70;;;2.50;;
2620;SDS011;1320;48.128;11.592;2023-02-22T10:44:29;2.80;;;1.63;;
2620;SDS011;1320;48.128;11.592;2023-02-22T10:46:59;6.27;;;2.20;;
2620;SDS011;1320;48.128;11.592;2023-02-22T10:49:26;5.63;;;2.00;;
2620;SDS011;1320;48.128;11.592;2023-02-22T10:52:00;4.77;;;2.30;;
2620;SDS011;1320;48.128;11.592;2023-02-22T10:54:29;4.33;;;2.17;;
2620;SDS011;1320;48.128;11.592;2023-02-22T10:56:57;4.63;;;1.53;;
2620;SDS011;1320;48.128;11.592;2023-02-22T10:59:27;5.00;;;1.87;;
2620;SDS011;1320;48.128;11.592;2023-02-22T11:01:58;4.17;;;1.67;;
2620;SDS011;1320;48.128;11.592;2023-02-22T11:04:26;4.87;;;1.70;;
2620;SDS011;1320;48.128;11.592;2023-02-22T11:09:29;3.00;;;1.80;;
2620;SDS011;1320;48.128;11.592;2023-02-22T11:12:08;2.00;;;1.20;;
2620;SDS011;1320;48.128;11.592;2023-02-22T11:14:35;3.33;;;1.93;;
2620;SDS011;1320;48.128;11.592;2023-02-22T11:17:06;4.97;;;1.40;;
2620;SDS011;1320;48.128;11.592;2023-02-22T11:19:32;1.80;;;1.27;;
2620;SDS011;1320;48.128;11.592;2023-02-22T11:25:07;3.60;;;1.67;;
2620;SDS011;1320;48.128;11.592;2023-02-22T11:27:43;3.77;;;1.93;;
2620;SDS011;1320;48.128;11.592;2023-02-22T11:32:55;3.27;;;1.50;;
2620;SDS011;1320;48.128;11.592;2023-02-22T11:37:53;4.63;;;1.60;;
2620;SDS011;1320;48.128;11.592;2023-02-22T11:40:34;3.37;;;1.80;;
2620;SDS011;1320;48.128;11.592;2023-02-22T11:45:36;2.07;;;1.43;;
2620;SDS011;1320;48.128;11.592;2023-02-22T11:48:04;2.93;;;1.70;;
2620;SDS011;1320;48.128;11.592;2023-02-22T11:58:45;3.93;;;2.47;;
2620;SDS011;1320;48.128;11.592;2023-02-22T12:09:27;3.90;;;1.83;;
2620;SDS011;1320;48.128;11.592;2023-02-22T12:20:31;2.73;;;1.07;;
2620;SDS011;1320;48.128;11.592;2023-02-22T12:23:17;1.90;;;1.10;;
2620;SDS011;1320;48.128;11.592;2023-02-22T12:32:15;1.90;;;1.10;;
2620;SDS011;1320;48.128;11.592;2023-02-22T12:34:56;2.00;;;1.10;;
2620;SDS011;1320;48.128;11.592;2023-02-22T12:38:09;9.87;;;1.93;;
2620;SDS011;1320;48.128;11.592;2023-02-22T12:40:33;2.60;;;1.47;;
2620;SDS011;1320;48.128;11.592;2023-02-22T12:43:19;7.67;;;1.70;;
2620;SDS011;1320;48.128;11.592;2023-02-22T12:54:00;2.03;;;1.17;;
2620;SDS011;1320;48.128;11.592;2023-02-22T12:59:36;1.90;;;1.00;;
2620;SDS011;1320;48.128;11.592;2023-02-22T13:02:17;2.90;;;1.43;;
2620;SDS011;1320;48.128;11.592;2023-02-22T13:05:04;6.00;;;1.40;;
2620;SDS011;1320;48.128;11.592;2023-02-22T13:16:10;1.70;;;0.93;;
2620;SDS011;1320;48.128;11.592;2023-02-22T13:24:05;1.83;;;0.93;;
2620;SDS011;1320;48.128;11.592;2023-02-22T13:26:42;1.80;;;1.03;;
2620;SDS011;1320;48.128;11.592;2023-02-22T13:29:19;2.17;;;1.30;;
2620;SDS011;1320;48.128;11.592;2023-02-22T13:46:04;2.93;;;0.93;;
2620;SDS011;1320;48.128;11.592;2023-02-22T13:49:00;1.70;;;1.00;;
2620;SDS011;1320;48.128;11.592;2023-02-22T13:54:25;2.33;;;1.20;;
2620;SDS011;1320;48.128;11.592;2023-02-22T13:57:01;2.53;;;1.00;;
2620;SDS011;1320;48.128;11.592;2023-02-22T13:59:30;1.67;;;0.80;;
2620;SDS011;1320;48.128;11.592;2023-02-22T14:02:00;2.80;;;1.20;;
2620;SDS011;1320;48.128;11.592;2023-02-22T14:04:38;1.77;;;0.90;;
2620;SDS011;1320;48.128;11.592;2023-02-22T14:17:38;2.10;;;1.20;;
2620;SDS011;1320;48.128;11.592;2023-02-22T14:22:41;6.33;;;1.53;;
2620;SDS011;1320;48.128;11.592;2023-02-22T14:25:28;2.23;;;1.40;;
2620;SDS011;1320;48.128;11.592;2023-02-22T14:28:06;3.00;;;1.60;;
2620;SDS011;1320;48.128;11.592;2023-02-22T14:31:02;4.20;;;1.50;;
2620;SDS011;1320;48.128;11.592;2023-02-22T14:36:32;2.90;;;1.10;;
2620;SDS011;1320;48.128;11.592;2023-02-22T14:41:57;4.60;;;1.10;;
2620;SDS011;1320;48.128;11.592;2023-02-22T14:44:43;3.10;;;1.40;;
2620;SDS011;1320;48.128;11.592;2023-02-22T14:48:11;7.40;;;1.70;;
2620;SDS011;1320;48.128;11.592;2023-02-22T14:50:41;2.23;;;1.43;;
2620;SDS011;1320;48.128;11.592;2023-02-22T14:53:25;3.10;;;1.53;;
2620;SDS011;1320;48.128;11.592;2023-02-22T14:56:05;2.33;;;1.20;;
2620;SDS011;1320;48.128;11.592;2023-02-22T14:58:42;2.23;;;1.40;;
2620;SDS011;1320;48.128;11.592;2023-02-22T15:01:26;2.97;;;1.60;;
2620;SDS011;1320;48.128;11.592;2023-02-22T15:06:47;3.67;;;1.80;;
2620;SDS011;1320;48.128;11.592;2023-02-22T15:14:38;5.83;;;1.33;;
2620;SDS011;1320;48.128;11.592;2023-02-22T15:17:19;2.13;;;1.13;;
2620;SDS011;1320;48.128;11.592;2023-02-22T15:19:46;3.50;;;1.37;;
2620;SDS011;1320;48.128;11.592;2023-02-22T15:22:18;1.90;;;1.10;;
2620;SDS011;1320;48.128;11.592;2023-02-22T15:24:54;2.40;;;1.23;;
2620;SDS011;1320;48.128;11.592;2023-02-22T15:27:25;2.80;;;1.40;;
2620;SDS011;1320;48.128;11.592;2023-02-22T15:29:56;2.87;;;1.77;;
2620;SDS011;1320;48.128;11.592;2023-02-22T15:32:29;4.17;;;1.87;;
2620;SDS011;1320;48.128;11.592;2023-02-22T15:35:04;2.50;;;1.43;;
2620;SDS011;1320;48.128;11.592;2023-02-22T15:37:36;4.90;;;2.50;;
2620;SDS011;1320;48.128;11.592;2023-02-22T15:40:05;6.63;;;2.43;;
2620;SDS011;1320;48.128;11.592;2023-02-22T15:42:42;5.13;;;2.07;;
2620;SDS011;1320;48.128;11.592;2023-02-22T15:45:11;3.93;;;1.83;;
2620;SDS011;1320;48.128;11.592;2023-02-22T15:47:44;3.90;;;2.17;;
2620;SDS011;1320;48.128;11.592;2023-02-22T15:50:29;5.40;;;1.53;;
2620;SDS011;1320;48.128;11.592;2023-02-22T15:53:07;2.70;;;1.70;;
2620;SDS011;1320;48.128;11.592;2023-02-22T15:55:43;2.83;;;1.80;;
2620;SDS011;1320;48.128;11.592;2023-02-22T16:01:04;13.83;;;2.60;;
2620;SDS011;1320;48.128;11.592;2023-02-22T16:03:42;4.30;;;2.17;;
2620;SDS011;1320;48.128;11.592;2023-02-22T16:06:33;4.23;;;2.83;;
2620;SDS011;1320;48.128;11.592;2023-02-22T16:09:00;2.97;;;2.60;;
2620;SDS011;1320;48.128;11.592;2023-02-22T16:11:37;3.93;;;2.70;;
2620;SDS011;1320;48.128;11.592;2023-02-22T16:22:22;8.63;;;4.43;;
2620;SDS011;1320;48.128;11.592;2023-02-22T16:25:11;5.00;;;2.70;;
2620;SDS011;1320;48.128;11.592;2023-02-22T16:27:43;4.10;;;2.50;;
2620;SDS011;1320;48.128;11.592;2023-02-22T16:32:45;4.93;;;2.60;;
2620;SDS011;1320;48.128;11.592;2023-02-22T16:35:12;4.40;;;2.70;;
2620;SDS011;1320;48.128;11.592;2023-02-22T16:37:46;6.27;;;3.30;;
2620;SDS011;1320;48.128;11.592;2023-02-22T16:42:59;5.10;;;2.90;;
2620;SDS011;1320;48.128;11.592;2023-02-22T16:45:30;5.87;;;3.20;;
2620;SDS011;1320;48.128;11.592;2023-02-22T16:47:57;6.67;;;3.20;;
2620;SDS011;1320;48.128;11.592;2023-02-22T16:50:23;6.67;;;3.47;;
2620;SDS011;1320;48.128;11.592;2023-02-22T16:52:49;4.23;;;3.20;;
2620;SDS011;1320;48.128;11.592;2023-02-22T16:55:18;8.17;;;3.20;;
2620;SDS011;1320;48.128;11.592;2023-02-22T16:57:44;6.10;;;3.40;;
2620;SDS011;1320;48.128;11.592;2023-02-22T17:00:19;5.60;;;2.87;;
2620;SDS011;1320;48.128;11.592;2023-02-22T17:02:55;4.53;;;2.63;;
2620;SDS011;1320;48.128;11.592;2023-02-22T17:05:30;5.43;;;2.80;;
2620;SDS011;1320;48.128;11.592;2023-02-22T17:08:00;5.07;;;2.93;;
2620;SDS011;1320;48.128;11.592;2023-02-22T17:10:26;6.47;;;3.37;;
2620;SDS011;1320;48.128;11.592;2023-02-22T17:12:53;11.30;;;3.13;;
2620;SDS011;1320;48.128;11.592;2023-02-22T17:15:23;6.37;;;3.33;;
2620;SDS011;1320;48.128;11.592;2023-02-22T17:17:50;4.90;;;3.33;;
2620;SDS011;1320;48.128;11.592;2023-02-22T17:20:17;7.10;;;3.57;;
2620;SDS011;1320;48.128;11.592;2023-02-22T17:22:59;4.83;;;3.17;;
2620;SDS011;1320;48.128;11.592;2023-02-22T17:25:28;8.50;;;3.43;;
2620;SDS011;1320;48.128;11.592;2023-02-22T17:27:58;5.80;;;3.00;;
2620;SDS011;1320;48.128;11.592;2023-02-22T17:30:24;8.40;;;3.33;;
2620;SDS011;1320;48.128;11.592;2023-02-22T17:32:51;4.50;;;3.30;;
2620;SDS011;1320;48.128;11.592;2023-02-22T17:35:17;9.13;;;3.57;;
2620;SDS011;1320;48.128;11.592;2023-02-22T17:37:48;5.23;;;3.30;;
2620;SDS011;1320;48.128;11.592;2023-02-22T17:40:14;6.37;;;4.13;;
2620;SDS011;1320;48.128;11.592;2023-02-22T17:42:43;6.80;;;4.07;;
2620;SDS011;1320;48.128;11.592;2023-02-22T17:45:10;6.13;;;4.43;;
2620;SDS011;1320;48.128;11.592;2023-02-22T17:47:41;13.10;;;3.97;;
2620;SDS011;1320;48.128;11.592;2023-02-22T17:50:10;6.50;;;4.20;;
2620;SDS011;1320;48.128;11.592;2023-02-22T17:52:39;7.37;;;4.20;;
2620;SDS011;1320;48.128;11.592;2023-02-22T17:55:05;9.70;;;3.53;;
2620;SDS011;1320;48.128;11.592;2023-02-22T17:57:32;9.23;;;4.60;;
2620;SDS011;1320;48.128;11.592;2023-02-22T17:59:58;9.17;;;4.23;;
2620;SDS011;1320;48.128;11.592;2023-02-22T18:02:25;7.90;;;4.37;;
2620;SDS011;1320;48.128;11.592;2023-02-22T18:04:50;7.90;;;4.67;;
2620;SDS011;1320;48.128;11.592;2023-02-22T18:07:16;7.80;;;4.30;;
2620;SDS011;1320;48.128;11.592;2023-02-22T18:09:44;8.03;;;4.90;;
2620;SDS011;1320;48.128;11.592;2023-02-22T18:12:11;9.97;;;4.50;;
2620;SDS011;1320;48.128;11.592;2023-02-22T18:14:36;7.90;;;5.00;;
2620;SDS011;1320;48.128;11.592;2023-02-22T18:17:02;8.60;;;5.47;;
2620;SDS011;1320;48.128;11.592;2023-02-22T18:19:34;9.00;;;5.50;;